sensor_id;sensor_type;location;lat;lon;timestamp;temperature;humidity
25342;DHT22;13298;48.792;9.154;2023-06-22T00:01:58;19.90;99.90
25342;DHT22;13298;48.792;9.154;2023-06-22T00:04:24;19.90;99.90
25342;DHT22;13298;48.792;9.154;2023-06-22T00:06:50;19.90;99.90
25342;DHT22;13298;48.792;9.154;2023-06-22T00:09:16;19.90;99.90
25342;DHT22;13298;48.792;9.154;2023-06-22T00:11:42;19.90;99.90
25342;DHT22;13298;48.792;9.154;2023-06-22T00:14:07;19.80;99.90
25342;DHT22;13298;48.792;9.154;2023-06-22T00:16:33;19.80;99.90
25342;DHT22;13298;48.792;9.154;2023-06-22T00:19:00;19.80;99.90
25342;DHT22;13298;48.792;9.154;2023-06-22T00:21:27;19.80;99.90
25342;DHT22;13298;48.792;9.154;2023-06-22T00:23:53;19.80;99.90
25342;DHT22;13298;48.792;9.154;2023-06-22T00:26:19;19.80;99.90
25342;DHT22;13298;48.792;9.154;2023-06-22T00:28:46;19.70;99.90
25342;DHT22;13298;48.792;9.154;2023-06-22T00:31:12;19.70;99.90
25342;DHT22;13298;48.792;9.154;2023-06-22T00:33:37;19.70;99.90
25342;DHT22;13298;48.792;9.154;2023-06-22T00:36:05;19.70;99.90
25342;DHT22;13298;48.792;9.154;2023-06-22T00:38:31;19.70;99.90
25342;DHT22;13298;48.792;9.154;2023-06-22T00:40:57;19.60;99.90
25342;DHT22;13298;48.792;9.154;2023-06-22T00:43:23;19.60;99.90
25342;DHT22;13298;48.792;9.154;2023-06-22T00:45:48;19.60;99.90
25342;DHT22;13298;48.792;9.154;2023-06-22T00:48:14;19.60;99.90
25342;DHT22;13298;48.792;9.154;2023-06-22T00:50:40;19.60;99.90
25342;DHT22;13298;48.792;9.154;2023-06-22T00:53:08;19.50;99.90
25342;DHT22;13298;48.792;9.154;2023-06-22T00:55:41;19.60;99.90
25342;DHT22;13298;48.792;9.154;2023-06-22T00:58:09;19.60;99.90
25342;DHT22;13298;48.792;9.154;2023-06-22T01:00:36;19.60;99.90
25342;DHT22;13298;48.792;9.154;2023-06-22T01:03:03;19.60;99.90
25342;DHT22;13298;48.792;9.154;2023-06-22T01:05:29;19.60;99.90
25342;DHT22;13298;48.792;9.154;2023-06-22T01:08:15;19.60;99.90
25342;DHT22;13298;48.792;9.154;2023-06-22T01:10:55;19.70;99.90
25342;DHT22;13298;48.792;9.154;2023-06-22T01:13:32;19.70;99.90
25342;DHT22;13298;48.792;9.154;2023-06-22T01:18:52;19.50;99.90
25342;DHT22;13298;48.792;9.154;2023-06-22T01:21:20;19.60;99.90
25342;DHT22;13298;48.792;9.154;2023-06-22T01:24:15;19.50;99.90
25342;DHT22;13298;48.792;9.154;2023-06-22T01:27:16;19.50;99.90
25342;DHT22;13298;48.792;9.154;2023-06-22T01:29:49;19.40;99.90
25342;DHT22;13298;48.792;9.154;2023-06-22T01:32:17;19.30;99.90
25342;DHT22;13298;48.792;9.154;2023-06-22T01:34:44;19.30;99.90
25342;DHT22;13298;48.792;9.154;2023-06-22T01:37:12;19.20;99.90
25342;DHT22;13298;48.792;9.154;2023-06-22T01:39:38;19.10;99.90
25342;DHT22;13298;48.792;9.154;2023-06-22T01:42:05;19.00;99.90
25342;DHT22;13298;48.792;9.154;2023-06-22T01:44:32;19.00;99.90
25342;DHT22;13298;48.792;9.154;2023-06-22T01:46:58;19.00;99.90
25342;DHT22;13298;48.792;9.154;2023-06-22T01:49:24;19.00;99.90
25342;DHT22;13298;48.792;9.154;2023-06-22T01:51:51;18.90;99.90
25342;DHT22;13298;48.792;9.154;2023-06-22T01:54:16;18.80;99.90
25342;DHT22;13298;48.792;9.154;2023-06-22T01:56:42;18.80;99.90
25342;DHT22;13298;48.792;9.154;2023-06-22T01:59:28;18.70;99.90
25342;DHT22;13298;48.792;9.154;2023-06-22T02:02:09;18.70;99.90
25342;DHT22;13298;48.792;9.154;2023-06-22T02:04:47;18.60;99.90
25342;DHT22;13298;48.792;9.154;2023-06-22T02:07:18;18.60;99.90
25342;DHT22;13298;48.792;9.154;2023-06-22T02:09:48;18.50;99.90
25342;DHT22;13298;48.792;9.154;2023-06-22T02:12:21;18.50;99.90
25342;DHT22;13298;48.792;9.154;2023-06-22T02:14:49;18.50;99.90
25342;DHT22;13298;48.792;9.154;2023-06-22T02:17:17;18.50;99.90
25342;DHT22;13298;48.792;9.154;2023-06-22T02:19:43;18.50;99.90
25342;DHT22;13298;48.792;9.154;2023-06-22T02:22:09;18.50;99.90
25342;DHT22;13298;48.792;9.154;2023-06-22T02:24:35;18.50;99.90
25342;DHT22;13298;48.792;9.154;2023-06-22T02:27:02;18.50;99.90
25342;DHT22;13298;48.792;9.154;2023-06-22T02:29:28;18.50;99.90
25342;DHT22;13298;48.792;9.154;2023-06-22T02:31:54;18.50;99.90
25342;DHT22;13298;48.792;9.154;2023-06-22T02:34:21;18.50;99.90
25342;DHT22;13298;48.792;9.154;2023-06-22T02:36:48;18.50;99.90
25342;DHT22;13298;48.792;9.154;2023-06-22T02:39:22;18.50;99.90
25342;DHT22;13298;48.792;9.154;2023-06-22T02:41:49;18.50;99.90
25342;DHT22;13298;48.792;9.154;2023-06-22T02:44:15;18.60;99.90
25342;DHT22;13298;48.792;9.154;2023-06-22T02:46:42;18.60;99.90
25342;DHT22;13298;48.792;9.154;2023-06-22T02:49:07;18.60;99.90
25342;DHT22;13298;48.792;9.154;2023-06-22T02:51:34;18.60;99.90
25342;DHT22;13298;48.792;9.154;2023-06-22T02:54:00;18.60;99.90
25342;DHT22;13298;48.792;9.154;2023-06-22T02:56:25;18.50;99.90
25342;DHT22;13298;48.792;9.154;2023-06-22T02:58:51;18.60;99.90
25342;DHT22;13298;48.792;9.154;2023-06-22T03:01:17;18.60;99.90
25342;DHT22;13298;48.792;9.154;2023-06-22T03:03:48;18.60;99.90
25342;DHT22;13298;48.792;9.154;2023-06-22T03:06:14;18.60;99.90
25342;DHT22;13298;48.792;9.154;2023-06-22T03:08:39;18.50;99.90
25342;DHT22;13298;48.792;9.154;2023-06-22T03:11:07;18.50;99.90
25342;DHT22;13298;48.792;9.154;2023-06-22T03:13:33;18.40;99.90
25342;DHT22;13298;48.792;9.154;2023-06-22T03:15:59;18.40;99.90
25342;DHT22;13298;48.792;9.154;2023-06-22T03:18:24;18.40;99.90
25342;DHT22;13298;48.792;9.154;2023-06-22T03:20:50;18.30;99.90
25342;DHT22;13298;48.792;9.154;2023-06-22T03:23:16;18.30;99.90
25342;DHT22;13298;48.792;9.154;2023-06-22T03:25:42;18.20;99.90
25342;DHT22;13298;48.792;9.154;2023-06-22T03:28:10;18.10;99.90
25342;DHT22;13298;48.792;9.154;2023-06-22T03:30:35;18.10;99.90
25342;DHT22;13298;48.792;9.154;2023-06-22T03:33:01;18.10;99.90
25342;DHT22;13298;48.792;9.154;2023-06-22T03:35:27;18.20;99.90
25342;DHT22;13298;48.792;9.154;2023-06-22T03:37:53;18.10;99.90
25342;DHT22;13298;48.792;9.154;2023-06-22T03:40:19;18.10;99.90
25342;DHT22;13298;48.792;9.154;2023-06-22T03:42:45;18.00;99.90
25342;DHT22;13298;48.792;9.154;2023-06-22T03:45:11;18.10;99.90
25342;DHT22;13298;48.792;9.154;2023-06-22T03:47:36;18.10;99.90
25342;DHT22;13298;48.792;9.154;2023-06-22T03:50:02;18.10;99.90
25342;DHT22;13298;48.792;9.154;2023-06-22T03:52:31;18.10;99.90
25342;DHT22;13298;48.792;9.154;2023-06-22T03:54:57;18.10;99.90
25342;DHT22;13298;48.792;9.154;2023-06-22T03:57:23;18.30;99.90
25342;DHT22;13298;48.792;9.154;2023-06-22T03:59:49;18.40;99.90
25342;DHT22;13298;48.792;9.154;2023-06-22T04:02:15;18.50;99.90
25342;DHT22;13298;48.792;9.154;2023-06-22T04:04:40;18.50;99.90
25342;DHT22;13298;48.792;9.154;2023-06-22T04:07:06;18.30;99.90
25342;DHT22;13298;48.792;9.154;2023-06-22T04:09:33;18.40;99.90
25342;DHT22;13298;48.792;9.154;2023-06-22T04:11:58;18.40;99.90
25342;DHT22;13298;48.792;9.154;2023-06-22T04:14:24;18.40;99.90
25342;DHT22;13298;48.792;9.154;2023-06-22T04:16:51;18.40;99.90
25342;DHT22;13298;48.792;9.154;2023-06-22T04:19:16;18.50;99.90
25342;DHT22;13298;48.792;9.154;2023-06-22T04:21:44;18.60;99.90
25342;DHT22;13298;48.792;9.154;2023-06-22T04:24:10;18.60;99.90
25342;DHT22;13298;48.792;9.154;2023-06-22T04:26:36;18.70;99.90
25342;DHT22;13298;48.792;9.154;2023-06-22T04:29:05;18.70;99.90
25342;DHT22;13298;48.792;9.154;2023-06-22T04:31:32;18.80;99.90
25342;DHT22;13298;48.792;9.154;2023-06-22T04:34:05;18.90;99.90
25342;DHT22;13298;48.792;9.154;2023-06-22T04:36:40;19.00;99.90
25342;DHT22;13298;48.792;9.154;2023-06-22T04:39:07;19.10;99.90
25342;DHT22;13298;48.792;9.154;2023-06-22T04:41:35;19.10;99.90
25342;DHT22;13298;48.792;9.154;2023-06-22T04:44:09;19.20;99.90
25342;DHT22;13298;48.792;9.154;2023-06-22T04:46:35;19.30;99.90
25342;DHT22;13298;48.792;9.154;2023-06-22T04:49:06;19.30;99.90
25342;DHT22;13298;48.792;9.154;2023-06-22T04:51:40;19.30;99.90
25342;DHT22;13298;48.792;9.154;2023-06-22T04:54:07;19.40;99.90
25342;DHT22;13298;48.792;9.154;2023-06-22T04:56:33;19.50;99.90
25342;DHT22;13298;48.792;9.154;2023-06-22T04:58:59;19.50;99.90
25342;DHT22;13298;48.792;9.154;2023-06-22T05:01:25;19.50;99.90
25342;DHT22;13298;48.792;9.154;2023-06-22T05:03:51;19.70;99.90
25342;DHT22;13298;48.792;9.154;2023-06-22T05:06:24;19.80;99.90
25342;DHT22;13298;48.792;9.154;2023-06-22T05:08:55;20.00;99.90
25342;DHT22;13298;48.792;9.154;2023-06-22T05:11:26;20.20;99.90
25342;DHT22;13298;48.792;9.154;2023-06-22T05:13:52;20.30;99.90
25342;DHT22;13298;48.792;9.154;2023-06-22T05:16:19;20.60;99.90
25342;DHT22;13298;48.792;9.154;2023-06-22T05:18:55;20.50;99.90
25342;DHT22;13298;48.792;9.154;2023-06-22T05:21:22;20.60;99.90
25342;DHT22;13298;48.792;9.154;2023-06-22T05:23:49;20.70;99.90
25342;DHT22;13298;48.792;9.154;2023-06-22T05:26:15;20.90;99.90
25342;DHT22;13298;48.792;9.154;2023-06-22T05:28:40;21.00;99.90
25342;DHT22;13298;48.792;9.154;2023-06-22T05:31:06;21.20;99.90
25342;DHT22;13298;48.792;9.154;2023-06-22T05:33:32;21.40;99.90
25342;DHT22;13298;48.792;9.154;2023-06-22T05:35:58;21.70;99.90
25342;DHT22;13298;48.792;9.154;2023-06-22T05:38:24;21.90;99.90
25342;DHT22;13298;48.792;9.154;2023-06-22T05:40:49;22.10;99.90
25342;DHT22;13298;48.792;9.154;2023-06-22T05:43:15;22.10;99.90
25342;DHT22;13298;48.792;9.154;2023-06-22T05:45:41;22.10;99.90
25342;DHT22;13298;48.792;9.154;2023-06-22T05:48:07;22.10;99.90
25342;DHT22;13298;48.792;9.154;2023-06-22T05:50:32;22.10;99.90
25342;DHT22;13298;48.792;9.154;2023-06-22T05:52:58;22.10;99.90
25342;DHT22;13298;48.792;9.154;2023-06-22T05:55:24;22.00;99.90
25342;DHT22;13298;48.792;9.154;2023-06-22T05:57:49;22.00;99.90
25342;DHT22;13298;48.792;9.154;2023-06-22T06:00:15;22.00;99.90
25342;DHT22;13298;48.792;9.154;2023-06-22T06:02:41;22.00;99.90
25342;DHT22;13298;48.792;9.154;2023-06-22T06:05:12;21.90;99.90
25342;DHT22;13298;48.792;9.154;2023-06-22T06:07:41;21.80;99.90
25342;DHT22;13298;48.792;9.154;2023-06-22T06:10:08;21.80;99.90
25342;DHT22;13298;48.792;9.154;2023-06-22T06:12:34;21.80;99.90
25342;DHT22;13298;48.792;9.154;2023-06-22T06:15:00;21.70;99.90
25342;DHT22;13298;48.792;9.154;2023-06-22T06:17:26;21.80;99.90
25342;DHT22;13298;48.792;9.154;2023-06-22T06:19:52;21.80;99.90
25342;DHT22;13298;48.792;9.154;2023-06-22T06:22:18;21.90;99.90
25342;DHT22;13298;48.792;9.154;2023-06-22T06:24:45;22.10;99.90
25342;DHT22;13298;48.792;9.154;2023-06-22T06:27:11;22.20;99.90
25342;DHT22;13298;48.792;9.154;2023-06-22T06:29:36;22.40;99.90
25342;DHT22;13298;48.792;9.154;2023-06-22T06:32:02;22.50;99.90
25342;DHT22;13298;48.792;9.154;2023-06-22T06:34:28;22.70;99.90
25342;DHT22;13298;48.792;9.154;2023-06-22T06:36:54;22.90;99.90
25342;DHT22;13298;48.792;9.154;2023-06-22T06:39:20;23.10;99.90
25342;DHT22;13298;48.792;9.154;2023-06-22T06:41:46;23.20;99.90
25342;DHT22;13298;48.792;9.154;2023-06-22T06:44:11;23.40;99.90
25342;DHT22;13298;48.792;9.154;2023-06-22T06:46:37;23.50;99.90
25342;DHT22;13298;48.792;9.154;2023-06-22T06:49:03;23.60;99.90
25342;DHT22;13298;48.792;9.154;2023-06-22T06:51:29;23.70;99.90
25342;DHT22;13298;48.792;9.154;2023-06-22T06:53:55;23.80;99.90
25342;DHT22;13298;48.792;9.154;2023-06-22T06:56:20;24.00;99.90
25342;DHT22;13298;48.792;9.154;2023-06-22T06:58:46;24.20;99.90
25342;DHT22;13298;48.792;9.154;2023-06-22T07:01:12;24.30;99.90
25342;DHT22;13298;48.792;9.154;2023-06-22T07:03:38;24.40;99.90
25342;DHT22;13298;48.792;9.154;2023-06-22T07:06:04;24.50;99.90
25342;DHT22;13298;48.792;9.154;2023-06-22T07:08:30;24.50;99.90
25342;DHT22;13298;48.792;9.154;2023-06-22T07:10:55;24.70;99.90
25342;DHT22;13298;48.792;9.154;2023-06-22T07:13:22;24.70;99.90
25342;DHT22;13298;48.792;9.154;2023-06-22T07:15:47;24.70;99.90
25342;DHT22;13298;48.792;9.154;2023-06-22T07:18:13;24.70;99.90
25342;DHT22;13298;48.792;9.154;2023-06-22T07:20:39;24.80;99.90
25342;DHT22;13298;48.792;9.154;2023-06-22T07:23:05;24.70;99.90
25342;DHT22;13298;48.792;9.154;2023-06-22T07:25:30;24.90;99.90
25342;DHT22;13298;48.792;9.154;2023-06-22T07:27:59;24.90;99.90
25342;DHT22;13298;48.792;9.154;2023-06-22T07:30:30;25.00;99.90
25342;DHT22;13298;48.792;9.154;2023-06-22T07:32:57;25.10;99.90
25342;DHT22;13298;48.792;9.154;2023-06-22T07:35:24;25.30;99.90
25342;DHT22;13298;48.792;9.154;2023-06-22T07:37:50;25.30;99.90
25342;DHT22;13298;48.792;9.154;2023-06-22T07:40:15;25.50;99.90
25342;DHT22;13298;48.792;9.154;2023-06-22T07:42:41;25.60;99.90
25342;DHT22;13298;48.792;9.154;2023-06-22T07:45:07;25.70;99.90
25342;DHT22;13298;48.792;9.154;2023-06-22T07:47:34;25.70;99.90
25342;DHT22;13298;48.792;9.154;2023-06-22T07:50:01;25.80;99.90
25342;DHT22;13298;48.792;9.154;2023-06-22T07:52:28;25.80;99.90
25342;DHT22;13298;48.792;9.154;2023-06-22T07:54:54;25.90;99.90
25342;DHT22;13298;48.792;9.154;2023-06-22T07:57:20;26.00;99.90
25342;DHT22;13298;48.792;9.154;2023-06-22T07:59:46;26.10;99.90
25342;DHT22;13298;48.792;9.154;2023-06-22T08:02:12;26.10;99.90
25342;DHT22;13298;48.792;9.154;2023-06-22T08:04:38;26.20;99.90
25342;DHT22;13298;48.792;9.154;2023-06-22T08:07:04;26.30;99.90
25342;DHT22;13298;48.792;9.154;2023-06-22T08:09:32;26.20;99.90
25342;DHT22;13298;48.792;9.154;2023-06-22T08:11:58;26.30;99.90
25342;DHT22;13298;48.792;9.154;2023-06-22T08:14:29;26.40;99.90
25342;DHT22;13298;48.792;9.154;2023-06-22T08:16:55;26.50;99.90
25342;DHT22;13298;48.792;9.154;2023-06-22T08:19:20;26.70;99.90
25342;DHT22;13298;48.792;9.154;2023-06-22T08:21:46;26.90;99.90
25342;DHT22;13298;48.792;9.154;2023-06-22T08:24:12;27.10;99.90
25342;DHT22;13298;48.792;9.154;2023-06-22T08:26:38;27.10;99.90
25342;DHT22;13298;48.792;9.154;2023-06-22T08:29:04;27.40;99.90
25342;DHT22;13298;48.792;9.154;2023-06-22T08:31:30;27.50;99.90
25342;DHT22;13298;48.792;9.154;2023-06-22T08:33:59;27.60;99.90
25342;DHT22;13298;48.792;9.154;2023-06-22T08:36:25;27.80;99.90
25342;DHT22;13298;48.792;9.154;2023-06-22T08:38:54;28.00;99.90
25342;DHT22;13298;48.792;9.154;2023-06-22T08:41:28;28.10;99.90
25342;DHT22;13298;48.792;9.154;2023-06-22T08:43:54;28.00;99.90
25342;DHT22;13298;48.792;9.154;2023-06-22T08:46:19;27.90;99.90
25342;DHT22;13298;48.792;9.154;2023-06-22T08:48:48;27.90;99.90
25342;DHT22;13298;48.792;9.154;2023-06-22T08:51:15;28.30;99.90
25342;DHT22;13298;48.792;9.154;2023-06-22T08:53:41;28.70;99.90
25342;DHT22;13298;48.792;9.154;2023-06-22T08:56:08;29.10;99.90
25342;DHT22;13298;48.792;9.154;2023-06-22T08:58:34;29.40;99.90
25342;DHT22;13298;48.792;9.154;2023-06-22T09:00:59;29.40;99.80
25342;DHT22;13298;48.792;9.154;2023-06-22T09:03:26;29.50;99.90
25342;DHT22;13298;48.792;9.154;2023-06-22T09:05:52;29.60;99.60
25342;DHT22;13298;48.792;9.154;2023-06-22T09:08:18;29.80;99.20
25342;DHT22;13298;48.792;9.154;2023-06-22T09:10:43;29.90;98.80
25342;DHT22;13298;48.792;9.154;2023-06-22T09:13:09;30.00;98.70
25342;DHT22;13298;48.792;9.154;2023-06-22T09:15:35;30.10;97.30
25342;DHT22;13298;48.792;9.154;2023-06-22T09:18:00;30.00;97.70
25342;DHT22;13298;48.792;9.154;2023-06-22T09:20:26;29.90;96.90
25342;DHT22;13298;48.792;9.154;2023-06-22T09:22:52;29.60;97.10
25342;DHT22;13298;48.792;9.154;2023-06-22T09:25:17;29.50;97.50
25342;DHT22;13298;48.792;9.154;2023-06-22T09:27:46;29.70;97.40
25342;DHT22;13298;48.792;9.154;2023-06-22T09:30:12;29.90;99.90
25342;DHT22;13298;48.792;9.154;2023-06-22T09:32:38;30.00;96.40
25342;DHT22;13298;48.792;9.154;2023-06-22T09:35:05;30.00;96.40
25342;DHT22;13298;48.792;9.154;2023-06-22T09:37:32;30.10;96.90
25342;DHT22;13298;48.792;9.154;2023-06-22T09:39:57;30.10;96.00
25342;DHT22;13298;48.792;9.154;2023-06-22T09:42:23;30.00;95.80
25342;DHT22;13298;48.792;9.154;2023-06-22T09:44:49;29.80;96.50
25342;DHT22;13298;48.792;9.154;2023-06-22T09:47:14;29.80;96.00
25342;DHT22;13298;48.792;9.154;2023-06-22T09:49:40;29.80;95.40
25342;DHT22;13298;48.792;9.154;2023-06-22T09:52:06;29.80;96.80
25342;DHT22;13298;48.792;9.154;2023-06-22T09:54:32;30.00;96.10
25342;DHT22;13298;48.792;9.154;2023-06-22T09:56:57;30.10;95.40
25342;DHT22;13298;48.792;9.154;2023-06-22T09:59:23;30.30;95.20
25342;DHT22;13298;48.792;9.154;2023-06-22T10:01:49;30.30;95.60
25342;DHT22;13298;48.792;9.154;2023-06-22T10:04:14;30.50;94.70
25342;DHT22;13298;48.792;9.154;2023-06-22T10:06:40;30.60;94.70
25342;DHT22;13298;48.792;9.154;2023-06-22T10:09:07;30.70;94.70
25342;DHT22;13298;48.792;9.154;2023-06-22T10:11:33;31.00;94.90
25342;DHT22;13298;48.792;9.154;2023-06-22T10:14:00;31.10;94.00
25342;DHT22;13298;48.792;9.154;2023-06-22T10:16:33;31.30;94.30
25342;DHT22;13298;48.792;9.154;2023-06-22T10:19:00;31.40;93.80
25342;DHT22;13298;48.792;9.154;2023-06-22T10:21:26;31.40;93.20
25342;DHT22;13298;48.792;9.154;2023-06-22T10:23:54;31.50;93.70
25342;DHT22;13298;48.792;9.154;2023-06-22T10:26:20;31.70;93.40
25342;DHT22;13298;48.792;9.154;2023-06-22T10:28:46;32.00;93.20
25342;DHT22;13298;48.792;9.154;2023-06-22T10:31:11;32.10;91.50
25342;DHT22;13298;48.792;9.154;2023-06-22T10:33:37;32.00;91.90
25342;DHT22;13298;48.792;9.154;2023-06-22T10:36:03;32.10;92.00
25342;DHT22;13298;48.792;9.154;2023-06-22T10:38:29;32.20;91.10
25342;DHT22;13298;48.792;9.154;2023-06-22T10:40:55;32.20;91.40
25342;DHT22;13298;48.792;9.154;2023-06-22T10:43:21;32.20;91.00
25342;DHT22;13298;48.792;9.154;2023-06-22T10:45:47;32.50;91.30
25342;DHT22;13298;48.792;9.154;2023-06-22T10:48:12;32.70;90.40
25342;DHT22;13298;48.792;9.154;2023-06-22T10:50:38;32.70;89.90
25342;DHT22;13298;48.792;9.154;2023-06-22T10:53:04;32.70;90.50
25342;DHT22;13298;48.792;9.154;2023-06-22T10:55:29;32.80;90.00
25342;DHT22;13298;48.792;9.154;2023-06-22T10:57:55;32.80;88.60
25342;DHT22;13298;48.792;9.154;2023-06-22T11:00:21;33.00;90.30
25342;DHT22;13298;48.792;9.154;2023-06-22T11:02:46;33.10;88.10
25342;DHT22;13298;48.792;9.154;2023-06-22T11:05:12;33.10;86.50
25342;DHT22;13298;48.792;9.154;2023-06-22T11:07:42;33.00;87.30
25342;DHT22;13298;48.792;9.154;2023-06-22T11:10:09;32.90;87.20
25342;DHT22;13298;48.792;9.154;2023-06-22T11:12:34;32.80;88.20
25342;DHT22;13298;48.792;9.154;2023-06-22T11:15:01;32.70;87.10
25342;DHT22;13298;48.792;9.154;2023-06-22T11:17:27;32.80;88.70
25342;DHT22;13298;48.792;9.154;2023-06-22T11:19:52;32.80;87.30
25342;DHT22;13298;48.792;9.154;2023-06-22T11:22:18;32.80;87.20
25342;DHT22;13298;48.792;9.154;2023-06-22T11:24:44;32.80;86.90
25342;DHT22;13298;48.792;9.154;2023-06-22T11:27:09;32.70;87.90
25342;DHT22;13298;48.792;9.154;2023-06-22T11:29:35;32.70;86.60
25342;DHT22;13298;48.792;9.154;2023-06-22T11:32:01;32.50;88.30
25342;DHT22;13298;48.792;9.154;2023-06-22T11:34:27;32.30;86.60
25342;DHT22;13298;48.792;9.154;2023-06-22T11:36:53;32.10;86.60
25342;DHT22;13298;48.792;9.154;2023-06-22T11:39:19;32.00;88.50
25342;DHT22;13298;48.792;9.154;2023-06-22T11:41:45;32.00;87.90
25342;DHT22;13298;48.792;9.154;2023-06-22T11:44:10;32.10;86.20
25342;DHT22;13298;48.792;9.154;2023-06-22T11:46:36;32.30;86.00
25342;DHT22;13298;48.792;9.154;2023-06-22T11:49:02;32.50;84.40
25342;DHT22;13298;48.792;9.154;2023-06-22T11:51:28;32.40;85.40
25342;DHT22;13298;48.792;9.154;2023-06-22T11:53:56;32.50;85.90
25342;DHT22;13298;48.792;9.154;2023-06-22T11:56:22;32.60;87.30
25342;DHT22;13298;48.792;9.154;2023-06-22T11:58:48;32.60;84.90
25342;DHT22;13298;48.792;9.154;2023-06-22T12:01:13;32.50;84.30
25342;DHT22;13298;48.792;9.154;2023-06-22T12:03:41;32.40;85.60
25342;DHT22;13298;48.792;9.154;2023-06-22T12:06:08;32.30;85.90
25342;DHT22;13298;48.792;9.154;2023-06-22T12:08:34;32.20;87.20
25342;DHT22;13298;48.792;9.154;2023-06-22T12:11:00;32.10;86.10
25342;DHT22;13298;48.792;9.154;2023-06-22T12:13:25;31.90;85.80
25342;DHT22;13298;48.792;9.154;2023-06-22T12:15:51;31.70;87.00
25342;DHT22;13298;48.792;9.154;2023-06-22T12:18:18;31.70;88.40
25342;DHT22;13298;48.792;9.154;2023-06-22T12:20:46;31.60;87.40
25342;DHT22;13298;48.792;9.154;2023-06-22T12:23:11;31.60;88.20
25342;DHT22;13298;48.792;9.154;2023-06-22T12:25:37;31.70;89.10
25342;DHT22;13298;48.792;9.154;2023-06-22T12:28:03;31.80;90.00
25342;DHT22;13298;48.792;9.154;2023-06-22T12:30:30;31.90;90.20
25342;DHT22;13298;48.792;9.154;2023-06-22T12:32:56;32.00;90.00
25342;DHT22;13298;48.792;9.154;2023-06-22T12:35:22;32.00;89.80
25342;DHT22;13298;48.792;9.154;2023-06-22T12:37:47;32.20;89.70
25342;DHT22;13298;48.792;9.154;2023-06-22T12:40:13;32.30;90.80
25342;DHT22;13298;48.792;9.154;2023-06-22T12:42:39;32.20;89.00
25342;DHT22;13298;48.792;9.154;2023-06-22T12:45:05;32.00;89.80
25342;DHT22;13298;48.792;9.154;2023-06-22T12:47:31;31.90;90.60
25342;DHT22;13298;48.792;9.154;2023-06-22T12:49:57;31.90;90.00
25342;DHT22;13298;48.792;9.154;2023-06-22T12:52:23;31.90;88.80
25342;DHT22;13298;48.792;9.154;2023-06-22T12:54:48;31.90;90.80
25342;DHT22;13298;48.792;9.154;2023-06-22T12:57:14;32.00;90.80
25342;DHT22;13298;48.792;9.154;2023-06-22T12:59:40;32.00;90.00
25342;DHT22;13298;48.792;9.154;2023-06-22T13:02:05;31.90;89.80
25342;DHT22;13298;48.792;9.154;2023-06-22T13:04:31;31.60;90.10
25342;DHT22;13298;48.792;9.154;2023-06-22T13:06:57;31.40;90.50
25342;DHT22;13298;48.792;9.154;2023-06-22T13:09:23;31.20;90.90
25342;DHT22;13298;48.792;9.154;2023-06-22T13:11:48;31.10;90.90
25342;DHT22;13298;48.792;9.154;2023-06-22T13:14:14;31.10;91.70
25342;DHT22;13298;48.792;9.154;2023-06-22T13:16:41;30.90;91.60
25342;DHT22;13298;48.792;9.154;2023-06-22T13:19:07;30.90;91.50
25342;DHT22;13298;48.792;9.154;2023-06-22T13:21:33;30.80;91.10
25342;DHT22;13298;48.792;9.154;2023-06-22T13:23:59;30.80;91.70
25342;DHT22;13298;48.792;9.154;2023-06-22T13:26:25;30.90;91.70
25342;DHT22;13298;48.792;9.154;2023-06-22T13:28:52;31.10;92.00
25342;DHT22;13298;48.792;9.154;2023-06-22T13:31:18;31.30;92.50
25342;DHT22;13298;48.792;9.154;2023-06-22T13:33:44;31.60;92.10
25342;DHT22;13298;48.792;9.154;2023-06-22T13:36:13;31.80;91.00
25342;DHT22;13298;48.792;9.154;2023-06-22T13:38:38;32.00;90.50
25342;DHT22;13298;48.792;9.154;2023-06-22T13:41:07;32.10;90.60
25342;DHT22;13298;48.792;9.154;2023-06-22T13:43:32;32.30;90.50
25342;DHT22;13298;48.792;9.154;2023-06-22T13:45:58;32.40;90.40
25342;DHT22;13298;48.792;9.154;2023-06-22T13:48:24;32.50;90.80
25342;DHT22;13298;48.792;9.154;2023-06-22T13:50:51;32.50;90.80
25342;DHT22;13298;48.792;9.154;2023-06-22T13:53:17;32.60;89.80
25342;DHT22;13298;48.792;9.154;2023-06-22T13:55:43;32.70;90.00
25342;DHT22;13298;48.792;9.154;2023-06-22T13:58:09;32.60;88.70
25342;DHT22;13298;48.792;9.154;2023-06-22T14:00:35;32.50;88.30
25342;DHT22;13298;48.792;9.154;2023-06-22T14:03:00;32.40;88.80
25342;DHT22;13298;48.792;9.154;2023-06-22T14:05:26;32.30;90.20
25342;DHT22;13298;48.792;9.154;2023-06-22T14:07:52;32.20;90.90
25342;DHT22;13298;48.792;9.154;2023-06-22T14:10:17;32.20;90.80
25342;DHT22;13298;48.792;9.154;2023-06-22T14:12:43;32.20;84.70
25342;DHT22;13298;48.792;9.154;2023-06-22T14:15:10;32.10;85.20
25342;DHT22;13298;48.792;9.154;2023-06-22T14:17:35;32.20;85.40
25342;DHT22;13298;48.792;9.154;2023-06-22T14:20:01;32.40;85.70
25342;DHT22;13298;48.792;9.154;2023-06-22T14:22:28;32.70;85.00
25342;DHT22;13298;48.792;9.154;2023-06-22T14:24:55;33.20;84.80
25342;DHT22;13298;48.792;9.154;2023-06-22T14:27:23;33.40;81.50
25342;DHT22;13298;48.792;9.154;2023-06-22T14:29:48;33.40;80.90
25342;DHT22;13298;48.792;9.154;2023-06-22T14:32:14;33.40;79.40
25342;DHT22;13298;48.792;9.154;2023-06-22T14:34:40;33.40;80.80
25342;DHT22;13298;48.792;9.154;2023-06-22T14:37:09;33.40;82.40
25342;DHT22;13298;48.792;9.154;2023-06-22T14:39:35;33.50;78.30
25342;DHT22;13298;48.792;9.154;2023-06-22T14:42:02;33.60;78.60
25342;DHT22;13298;48.792;9.154;2023-06-22T14:44:29;33.70;78.00
25342;DHT22;13298;48.792;9.154;2023-06-22T14:46:58;34.00;76.40
25342;DHT22;13298;48.792;9.154;2023-06-22T14:49:24;34.20;75.70
25342;DHT22;13298;48.792;9.154;2023-06-22T14:51:49;34.50;73.90
25342;DHT22;13298;48.792;9.154;2023-06-22T14:54:15;34.40;72.60
25342;DHT22;13298;48.792;9.154;2023-06-22T14:56:41;34.30;71.50
25342;DHT22;13298;48.792;9.154;2023-06-22T14:59:08;34.30;75.30
25342;DHT22;13298;48.792;9.154;2023-06-22T15:01:34;34.20;69.90
25342;DHT22;13298;48.792;9.154;2023-06-22T15:03:59;33.80;65.50
25342;DHT22;13298;48.792;9.154;2023-06-22T15:06:25;33.60;66.30
25342;DHT22;13298;48.792;9.154;2023-06-22T15:08:52;33.40;61.70
25342;DHT22;13298;48.792;9.154;2023-06-22T15:11:18;33.20;60.60
25342;DHT22;13298;48.792;9.154;2023-06-22T15:13:44;33.10;60.00
25342;DHT22;13298;48.792;9.154;2023-06-22T15:16:09;33.00;60.70
25342;DHT22;13298;48.792;9.154;2023-06-22T15:18:36;33.00;62.20
25342;DHT22;13298;48.792;9.154;2023-06-22T15:21:03;33.20;59.70
25342;DHT22;13298;48.792;9.154;2023-06-22T15:23:30;33.30;60.50
25342;DHT22;13298;48.792;9.154;2023-06-22T15:25:57;33.40;59.50
25342;DHT22;13298;48.792;9.154;2023-06-22T15:28:23;33.50;59.40
25342;DHT22;13298;48.792;9.154;2023-06-22T15:30:49;33.60;58.90